Main page
METAR-TAF:

METAR-TAF

Airports :

Leonardo da Vinci–Fiumicino Airport

Rome-Fiumicino, Italy

latitude: 41-48N, longitude: 012-14E, elevation: 2 m

Current weather observation

The report was made 39 minutes ago, at 04:50 UTC
Wind 4 kt from the East
Temperature 12°C
Humidity 100%
Pressure 1014 hPa
Visibility: 8000 m

METAR: LIRF 240450Z 08004KT 8000 NSC 12/12 Q1014 NOSIG

Time: 07:29 (05:29 UTC)

Forecast

The report was made 6 hours and 29 minutes ago, at 23:00 UTC
Forecast valid from 24 at 00 UTC to 25 at 06 UTC
Wind 10 kt from the Southeast
Visibility 10 km or more
Few clouds at a height of 3000 ft
Becoming
from 24 at 03 UTC to 24 at 05 UTC
Wind 6 kt from the North/Northeast
Becoming
from 24 at 09 UTC to 24 at 11 UTC
Wind 12 kt from the South/Southwest
Becoming
from 24 at 17 UTC to 24 at 19 UTC
Wind 6 kt from variable directions

TAF: LIRF 232300Z 2400/2506 14010KT 9999 FEW030 BECMG 2403/2405 03006KT BECMG 2409/2411 20012KT BECMG 2417/2419 VRB06KT

Weather observations and forecasts of more than 4000 airports (METAR and TAF reports).

The available stations are represented by yellow and red dots on the map.

Hover mouse over dot to see the name of the station.

Then click to see weather observations and forecasts.

To change the map : click on the green buttons with a black cross to zoom in, on the green button with a dash to zoom out, or on the green arrows for adjacent maps.


METAR-TAF: